sensor_id;sensor_type;location;lat;lon;timestamp;P1;durP1;ratioP1;P2;durP2;ratioP2
22622;SDS011;11478;51.094;7.030;2022-08-19T00:02:00;22.83;;;20.33;;
22622;SDS011;11478;51.094;7.030;2022-08-19T00:04:32;23.42;;;21.13;;
22622;SDS011;11478;51.094;7.030;2022-08-19T00:12:18;25.38;;;20.67;;
22622;SDS011;11478;51.094;7.030;2022-08-19T00:17:14;21.67;;;19.55;;
22622;SDS011;11478;51.094;7.030;2022-08-19T00:19:45;24.27;;;20.73;;
22622;SDS011;11478;51.094;7.030;2022-08-19T00:22:11;23.77;;;20.98;;
22622;SDS011;11478;51.094;7.030;2022-08-19T00:24:40;22.83;;;20.52;;
22622;SDS011;11478;51.094;7.030;2022-08-19T00:27:08;24.02;;;21.38;;
22622;SDS011;11478;51.094;7.030;2022-08-19T00:29:50;23.52;;;21.25;;
22622;SDS011;11478;51.094;7.030;2022-08-19T00:32:16;23.67;;;21.27;;
22622;SDS011;11478;51.094;7.030;2022-08-19T00:34:43;22.60;;;20.30;;
22622;SDS011;11478;51.094;7.030;2022-08-19T00:37:09;23.15;;;20.77;;
22622;SDS011;11478;51.094;7.030;2022-08-19T00:39:40;22.63;;;20.33;;
22622;SDS011;11478;51.094;7.030;2022-08-19T00:42:06;23.30;;;20.98;;
22622;SDS011;11478;51.094;7.030;2022-08-19T00:44:32;23.38;;;20.73;;
22622;SDS011;11478;51.094;7.030;2022-08-19T00:46:58;21.85;;;19.65;;
22622;SDS011;11478;51.094;7.030;2022-08-19T00:49:25;22.25;;;19.95;;
22622;SDS011;11478;51.094;7.030;2022-08-19T00:54:29;22.53;;;20.13;;
22622;SDS011;11478;51.094;7.030;2022-08-19T00:59:38;21.30;;;18.98;;
22622;SDS011;11478;51.094;7.030;2022-08-19T01:02:06;21.50;;;19.20;;
22622;SDS011;11478;51.094;7.030;2022-08-19T01:04:32;21.95;;;19.67;;
22622;SDS011;11478;51.094;7.030;2022-08-19T01:06:58;21.70;;;19.50;;
22622;SDS011;11478;51.094;7.030;2022-08-19T01:09:24;20.88;;;18.67;;
22622;SDS011;11478;51.094;7.030;2022-08-19T01:14:19;20.63;;;18.58;;
22622;SDS011;11478;51.094;7.030;2022-08-19T01:16:51;22.27;;;19.88;;
22622;SDS011;11478;51.094;7.030;2022-08-19T01:19:23;22.67;;;20.48;;
22622;SDS011;11478;51.094;7.030;2022-08-19T01:25:18;23.60;;;20.30;;
22622;SDS011;11478;51.094;7.030;2022-08-19T01:28:05;21.45;;;19.35;;
22622;SDS011;11478;51.094;7.030;2022-08-19T01:30:33;23.23;;;20.80;;
22622;SDS011;11478;51.094;7.030;2022-08-19T01:33:01;21.05;;;18.75;;
22622;SDS011;11478;51.094;7.030;2022-08-19T01:35:28;22.75;;;19.92;;
22622;SDS011;11478;51.094;7.030;2022-08-19T01:38:18;25.55;;;20.77;;
22622;SDS011;11478;51.094;7.030;2022-08-19T01:40:47;23.17;;;20.77;;
22622;SDS011;11478;51.094;7.030;2022-08-19T01:43:13;22.33;;;19.90;;
22622;SDS011;11478;51.094;7.030;2022-08-19T01:45:40;21.88;;;19.67;;
22622;SDS011;11478;51.094;7.030;2022-08-19T01:48:11;21.58;;;19.42;;
22622;SDS011;11478;51.094;7.030;2022-08-19T01:50:38;21.08;;;18.88;;
22622;SDS011;11478;51.094;7.030;2022-08-19T01:53:05;20.90;;;18.67;;
22622;SDS011;11478;51.094;7.030;2022-08-19T01:55:36;21.38;;;19.27;;
22622;SDS011;11478;51.094;7.030;2022-08-19T01:58:03;21.60;;;19.30;;
22622;SDS011;11478;51.094;7.030;2022-08-19T02:00:32;22.23;;;19.60;;
22622;SDS011;11478;51.094;7.030;2022-08-19T02:02:59;21.45;;;19.25;;
22622;SDS011;11478;51.094;7.030;2022-08-19T02:05:26;20.50;;;18.20;;
22622;SDS011;11478;51.094;7.030;2022-08-19T02:07:55;21.08;;;18.98;;
22622;SDS011;11478;51.094;7.030;2022-08-19T02:10:22;21.65;;;19.45;;
22622;SDS011;11478;51.094;7.030;2022-08-19T02:12:49;21.23;;;18.67;;
22622;SDS011;11478;51.094;7.030;2022-08-19T02:15:16;22.75;;;18.85;;
22622;SDS011;11478;51.094;7.030;2022-08-19T02:17:51;21.80;;;19.65;;
22622;SDS011;11478;51.094;7.030;2022-08-19T02:20:17;21.17;;;18.98;;
22622;SDS011;11478;51.094;7.030;2022-08-19T02:22:50;21.00;;;18.73;;
22622;SDS011;11478;51.094;7.030;2022-08-19T02:25:17;22.52;;;18.67;;
22622;SDS011;11478;51.094;7.030;2022-08-19T02:27:49;21.27;;;19.05;;
22622;SDS011;11478;51.094;7.030;2022-08-19T02:30:16;19.35;;;17.45;;
22622;SDS011;11478;51.094;7.030;2022-08-19T02:32:42;20.42;;;17.58;;
22622;SDS011;11478;51.094;7.030;2022-08-19T02:35:09;20.15;;;18.10;;
22622;SDS011;11478;51.094;7.030;2022-08-19T02:37:35;21.80;;;18.00;;
22622;SDS011;11478;51.094;7.030;2022-08-19T02:40:20;23.35;;;18.73;;
22622;SDS011;11478;51.094;7.030;2022-08-19T02:42:50;24.90;;;19.38;;
22622;SDS011;11478;51.094;7.030;2022-08-19T02:45:19;20.90;;;18.70;;
22622;SDS011;11478;51.094;7.030;2022-08-19T02:47:45;20.08;;;17.77;;
22622;SDS011;11478;51.094;7.030;2022-08-19T02:52:52;20.00;;;17.45;;
22622;SDS011;11478;51.094;7.030;2022-08-19T02:55:18;21.88;;;18.48;;
22622;SDS011;11478;51.094;7.030;2022-08-19T02:57:49;20.58;;;18.38;;
22622;SDS011;11478;51.094;7.030;2022-08-19T03:00:15;20.80;;;17.45;;
22622;SDS011;11478;51.094;7.030;2022-08-19T03:02:41;21.27;;;17.70;;
22622;SDS011;11478;51.094;7.030;2022-08-19T03:05:08;20.85;;;18.63;;
22622;SDS011;11478;51.094;7.030;2022-08-19T03:07:36;21.98;;;18.52;;
22622;SDS011;11478;51.094;7.030;2022-08-19T03:10:02;23.88;;;20.08;;
22622;SDS011;11478;51.094;7.030;2022-08-19T03:12:30;20.45;;;17.65;;
22622;SDS011;11478;51.094;7.030;2022-08-19T03:14:56;21.60;;;18.25;;
22622;SDS011;11478;51.094;7.030;2022-08-19T03:19:53;19.08;;;17.17;;
22622;SDS011;11478;51.094;7.030;2022-08-19T03:22:19;21.25;;;19.05;;
22622;SDS011;11478;51.094;7.030;2022-08-19T03:24:47;21.08;;;17.15;;
22622;SDS011;11478;51.094;7.030;2022-08-19T03:27:14;20.48;;;18.38;;
22622;SDS011;11478;51.094;7.030;2022-08-19T03:29:40;21.15;;;19.00;;
22622;SDS011;11478;51.094;7.030;2022-08-19T03:32:06;22.27;;;18.95;;
22622;SDS011;11478;51.094;7.030;2022-08-19T03:34:32;21.42;;;18.73;;
22622;SDS011;11478;51.094;7.030;2022-08-19T03:37:03;21.33;;;19.08;;
22622;SDS011;11478;51.094;7.030;2022-08-19T03:39:35;21.60;;;19.33;;
22622;SDS011;11478;51.094;7.030;2022-08-19T03:42:17;24.95;;;19.50;;
22622;SDS011;11478;51.094;7.030;2022-08-19T03:44:43;21.75;;;19.38;;
22622;SDS011;11478;51.094;7.030;2022-08-19T03:47:10;21.65;;;18.90;;
22622;SDS011;11478;51.094;7.030;2022-08-19T03:49:40;21.40;;;19.20;;
22622;SDS011;11478;51.094;7.030;2022-08-19T03:52:06;21.75;;;19.65;;
22622;SDS011;11478;51.094;7.030;2022-08-19T03:54:35;20.50;;;18.42;;
22622;SDS011;11478;51.094;7.030;2022-08-19T03:57:01;24.00;;;19.70;;
22622;SDS011;11478;51.094;7.030;2022-08-19T03:59:30;22.13;;;19.15;;
22622;SDS011;11478;51.094;7.030;2022-08-19T04:01:59;22.42;;;19.35;;
22622;SDS011;11478;51.094;7.030;2022-08-19T04:04:30;21.52;;;18.75;;
22622;SDS011;11478;51.094;7.030;2022-08-19T04:06:55;20.23;;;18.02;;
22622;SDS011;11478;51.094;7.030;2022-08-19T04:09:21;20.83;;;17.80;;
22622;SDS011;11478;51.094;7.030;2022-08-19T04:11:52;21.52;;;17.98;;
22622;SDS011;11478;51.094;7.030;2022-08-19T04:14:23;20.98;;;18.42;;
22622;SDS011;11478;51.094;7.030;2022-08-19T04:16:51;21.98;;;19.10;;
22622;SDS011;11478;51.094;7.030;2022-08-19T04:19:18;21.95;;;19.00;;
22622;SDS011;11478;51.094;7.030;2022-08-19T04:21:47;21.25;;;18.95;;
22622;SDS011;11478;51.094;7.030;2022-08-19T04:24:17;24.55;;;20.58;;
22622;SDS011;11478;51.094;7.030;2022-08-19T04:26:44;19.90;;;17.65;;
22622;SDS011;11478;51.094;7.030;2022-08-19T04:29:13;20.40;;;18.20;;
22622;SDS011;11478;51.094;7.030;2022-08-19T04:31:44;19.63;;;17.55;;
22622;SDS011;11478;51.094;7.030;2022-08-19T04:34:17;19.60;;;17.55;;
22622;SDS011;11478;51.094;7.030;2022-08-19T04:36:49;20.42;;;18.33;;
22622;SDS011;11478;51.094;7.030;2022-08-19T04:39:21;21.20;;;18.98;;
22622;SDS011;11478;51.094;7.030;2022-08-19T04:42:13;22.13;;;18.95;;
22622;SDS011;11478;51.094;7.030;2022-08-19T04:45:02;21.55;;;18.65;;
22622;SDS011;11478;51.094;7.030;2022-08-19T04:47:29;22.50;;;17.52;;
22622;SDS011;11478;51.094;7.030;2022-08-19T04:49:56;22.20;;;18.55;;
22622;SDS011;11478;51.094;7.030;2022-08-19T04:52:22;24.48;;;19.77;;
22622;SDS011;11478;51.094;7.030;2022-08-19T04:54:48;21.48;;;19.20;;
22622;SDS011;11478;51.094;7.030;2022-08-19T04:57:14;20.20;;;17.85;;
22622;SDS011;11478;51.094;7.030;2022-08-19T04:59:40;21.40;;;19.02;;
22622;SDS011;11478;51.094;7.030;2022-08-19T05:02:06;24.63;;;19.25;;
22622;SDS011;11478;51.094;7.030;2022-08-19T05:04:33;22.80;;;18.63;;
22622;SDS011;11478;51.094;7.030;2022-08-19T05:07:07;24.02;;;17.92;;
22622;SDS011;11478;51.094;7.030;2022-08-19T05:09:33;19.08;;;17.17;;
22622;SDS011;11478;51.094;7.030;2022-08-19T05:12:03;20.25;;;17.17;;
22622;SDS011;11478;51.094;7.030;2022-08-19T05:14:30;22.92;;;18.77;;
22622;SDS011;11478;51.094;7.030;2022-08-19T05:16:57;21.33;;;18.05;;
22622;SDS011;11478;51.094;7.030;2022-08-19T05:19:23;21.67;;;17.48;;
22622;SDS011;11478;51.094;7.030;2022-08-19T05:22:07;19.33;;;16.85;;
22622;SDS011;11478;51.094;7.030;2022-08-19T05:24:52;21.98;;;17.67;;
22622;SDS011;11478;51.094;7.030;2022-08-19T05:27:24;19.85;;;17.73;;
22622;SDS011;11478;51.094;7.030;2022-08-19T05:29:50;21.52;;;17.73;;
22622;SDS011;11478;51.094;7.030;2022-08-19T05:32:16;18.63;;;16.73;;
22622;SDS011;11478;51.094;7.030;2022-08-19T05:34:42;18.67;;;16.52;;
22622;SDS011;11478;51.094;7.030;2022-08-19T05:37:08;18.90;;;17.00;;
22622;SDS011;11478;51.094;7.030;2022-08-19T05:39:35;19.25;;;17.25;;
22622;SDS011;11478;51.094;7.030;2022-08-19T05:42:07;22.10;;;17.58;;
22622;SDS011;11478;51.094;7.030;2022-08-19T05:44:35;19.27;;;17.23;;
22622;SDS011;11478;51.094;7.030;2022-08-19T05:47:13;20.10;;;17.13;;
22622;SDS011;11478;51.094;7.030;2022-08-19T05:49:40;20.63;;;18.02;;
22622;SDS011;11478;51.094;7.030;2022-08-19T05:52:08;19.73;;;17.73;;
22622;SDS011;11478;51.094;7.030;2022-08-19T05:54:37;20.38;;;18.27;;
22622;SDS011;11478;51.094;7.030;2022-08-19T05:57:05;19.45;;;17.42;;
22622;SDS011;11478;51.094;7.030;2022-08-19T05:59:42;18.95;;;16.95;;
22622;SDS011;11478;51.094;7.030;2022-08-19T06:02:09;18.98;;;16.98;;
22622;SDS011;11478;51.094;7.030;2022-08-19T06:04:35;18.73;;;16.75;;
22622;SDS011;11478;51.094;7.030;2022-08-19T06:07:01;18.40;;;16.45;;
22622;SDS011;11478;51.094;7.030;2022-08-19T06:09:33;21.15;;;17.45;;
22622;SDS011;11478;51.094;7.030;2022-08-19T06:12:00;19.92;;;17.77;;
22622;SDS011;11478;51.094;7.030;2022-08-19T06:14:30;23.65;;;16.70;;
22622;SDS011;11478;51.094;7.030;2022-08-19T06:16:59;19.52;;;17.42;;
22622;SDS011;11478;51.094;7.030;2022-08-19T06:19:38;18.52;;;16.63;;
22622;SDS011;11478;51.094;7.030;2022-08-19T06:22:05;18.02;;;16.15;;
22622;SDS011;11478;51.094;7.030;2022-08-19T06:24:32;19.83;;;16.80;;
22622;SDS011;11478;51.094;7.030;2022-08-19T06:26:59;19.80;;;17.65;;
22622;SDS011;11478;51.094;7.030;2022-08-19T06:29:35;21.42;;;17.55;;
22622;SDS011;11478;51.094;7.030;2022-08-19T06:32:02;18.60;;;16.67;;
22622;SDS011;11478;51.094;7.030;2022-08-19T06:34:31;18.33;;;16.52;;
22622;SDS011;11478;51.094;7.030;2022-08-19T06:37:00;19.23;;;15.75;;
22622;SDS011;11478;51.094;7.030;2022-08-19T06:39:29;17.88;;;15.98;;
22622;SDS011;11478;51.094;7.030;2022-08-19T06:41:58;19.23;;;16.90;;
22622;SDS011;11478;51.094;7.030;2022-08-19T06:44:30;19.33;;;17.17;;
22622;SDS011;11478;51.094;7.030;2022-08-19T06:46:59;19.40;;;17.45;;
22622;SDS011;11478;51.094;7.030;2022-08-19T06:49:34;18.75;;;16.77;;
22622;SDS011;11478;51.094;7.030;2022-08-19T06:52:02;18.90;;;16.98;;
22622;SDS011;11478;51.094;7.030;2022-08-19T06:54:28;17.08;;;15.43;;
22622;SDS011;11478;51.094;7.030;2022-08-19T06:56:59;16.50;;;14.80;;
22622;SDS011;11478;51.094;7.030;2022-08-19T06:59:29;16.75;;;14.98;;
22622;SDS011;11478;51.094;7.030;2022-08-19T07:01:58;15.43;;;13.82;;
22622;SDS011;11478;51.094;7.030;2022-08-19T07:04:29;16.25;;;14.65;;
22622;SDS011;11478;51.094;7.030;2022-08-19T07:07:21;24.70;;;20.77;;
22622;SDS011;11478;51.094;7.030;2022-08-19T07:09:52;62.05;;;47.10;;
22622;SDS011;11478;51.094;7.030;2022-08-19T07:14:51;65.03;;;49.20;;
22622;SDS011;11478;51.094;7.030;2022-08-19T07:17:22;61.78;;;48.30;;
22622;SDS011;11478;51.094;7.030;2022-08-19T07:19:58;74.80;;;55.00;;
22622;SDS011;11478;51.094;7.030;2022-08-19T07:22:31;63.47;;;48.35;;
22622;SDS011;11478;51.094;7.030;2022-08-19T07:25:01;70.35;;;53.20;;
22622;SDS011;11478;51.094;7.030;2022-08-19T07:30:17;60.90;;;47.75;;
22622;SDS011;11478;51.094;7.030;2022-08-19T07:32:56;60.67;;;46.83;;
22622;SDS011;11478;51.094;7.030;2022-08-19T07:35:31;54.92;;;42.92;;
22622;SDS011;11478;51.094;7.030;2022-08-19T07:38:03;61.17;;;45.92;;
22622;SDS011;11478;51.094;7.030;2022-08-19T07:40:33;76.03;;;52.92;;
22622;SDS011;11478;51.094;7.030;2022-08-19T07:42:59;62.60;;;47.38;;
22622;SDS011;11478;51.094;7.030;2022-08-19T07:50:32;57.42;;;44.88;;
22622;SDS011;11478;51.094;7.030;2022-08-19T07:52:58;63.63;;;50.85;;
22622;SDS011;11478;51.094;7.030;2022-08-19T07:55:29;60.38;;;46.28;;
22622;SDS011;11478;51.094;7.030;2022-08-19T07:57:55;68.43;;;49.47;;
22622;SDS011;11478;51.094;7.030;2022-08-19T08:00:24;59.53;;;45.90;;
22622;SDS011;11478;51.094;7.030;2022-08-19T08:02:50;57.13;;;45.03;;
22622;SDS011;11478;51.094;7.030;2022-08-19T08:05:25;49.75;;;39.72;;
22622;SDS011;11478;51.094;7.030;2022-08-19T08:08:13;57.70;;;43.10;;
22622;SDS011;11478;51.094;7.030;2022-08-19T08:10:57;58.33;;;43.20;;
22622;SDS011;11478;51.094;7.030;2022-08-19T08:13:24;57.58;;;43.17;;
22622;SDS011;11478;51.094;7.030;2022-08-19T08:15:52;51.03;;;40.53;;
22622;SDS011;11478;51.094;7.030;2022-08-19T08:18:18;53.53;;;40.72;;
22622;SDS011;11478;51.094;7.030;2022-08-19T08:20:48;51.22;;;39.42;;
22622;SDS011;11478;51.094;7.030;2022-08-19T08:23:17;53.17;;;41.95;;
22622;SDS011;11478;51.094;7.030;2022-08-19T08:26:00;50.53;;;38.90;;
22622;SDS011;11478;51.094;7.030;2022-08-19T08:28:29;48.38;;;37.17;;
22622;SDS011;11478;51.094;7.030;2022-08-19T08:30:58;40.78;;;32.70;;
22622;SDS011;11478;51.094;7.030;2022-08-19T08:33:31;44.58;;;34.17;;
22622;SDS011;11478;51.094;7.030;2022-08-19T08:36:08;43.42;;;35.67;;
22622;SDS011;11478;51.094;7.030;2022-08-19T08:38:37;39.90;;;32.72;;
22622;SDS011;11478;51.094;7.030;2022-08-19T08:44:02;40.50;;;33.13;;
22622;SDS011;11478;51.094;7.030;2022-08-19T08:46:55;40.53;;;32.47;;
22622;SDS011;11478;51.094;7.030;2022-08-19T08:52:22;39.42;;;31.33;;
22622;SDS011;11478;51.094;7.030;2022-08-19T08:54:54;41.28;;;31.35;;
22622;SDS011;11478;51.094;7.030;2022-08-19T08:57:35;41.85;;;32.92;;
22622;SDS011;11478;51.094;7.030;2022-08-19T09:00:22;41.95;;;32.17;;
22622;SDS011;11478;51.094;7.030;2022-08-19T09:02:51;36.58;;;28.77;;
22622;SDS011;11478;51.094;7.030;2022-08-19T09:14:35;35.05;;;29.17;;
22622;SDS011;11478;51.094;7.030;2022-08-19T09:17:16;41.60;;;32.92;;
22622;SDS011;11478;51.094;7.030;2022-08-19T09:20:08;37.40;;;29.30;;
22622;SDS011;11478;51.094;7.030;2022-08-19T09:22:48;48.10;;;36.45;;
22622;SDS011;11478;51.094;7.030;2022-08-19T09:25:20;49.47;;;37.08;;
22622;SDS011;11478;51.094;7.030;2022-08-19T09:27:47;45.85;;;36.40;;
22622;SDS011;11478;51.094;7.030;2022-08-19T09:30:25;43.20;;;34.00;;
22622;SDS011;11478;51.094;7.030;2022-08-19T09:32:53;44.58;;;33.88;;
22622;SDS011;11478;51.094;7.030;2022-08-19T09:35:29;43.30;;;33.35;;
22622;SDS011;11478;51.094;7.030;2022-08-19T09:37:56;36.80;;;27.85;;
22622;SDS011;11478;51.094;7.030;2022-08-19T09:40:29;41.03;;;31.38;;
22622;SDS011;11478;51.094;7.030;2022-08-19T09:42:58;46.90;;;36.92;;
22622;SDS011;11478;51.094;7.030;2022-08-19T09:45:29;42.83;;;32.42;;
22622;SDS011;11478;51.094;7.030;2022-08-19T09:47:55;36.72;;;29.45;;
22622;SDS011;11478;51.094;7.030;2022-08-19T09:50:25;32.50;;;24.95;;
22622;SDS011;11478;51.094;7.030;2022-08-19T09:52:51;29.63;;;24.08;;
22622;SDS011;11478;51.094;7.030;2022-08-19T09:55:20;30.38;;;23.15;;
22622;SDS011;11478;51.094;7.030;2022-08-19T09:57:49;25.17;;;21.60;;
22622;SDS011;11478;51.094;7.030;2022-08-19T10:00:15;28.90;;;20.77;;
22622;SDS011;11478;51.094;7.030;2022-08-19T10:05:30;37.40;;;26.92;;
22622;SDS011;11478;51.094;7.030;2022-08-19T10:08:15;30.83;;;24.75;;
22622;SDS011;11478;51.094;7.030;2022-08-19T10:10:56;25.95;;;21.88;;
22622;SDS011;11478;51.094;7.030;2022-08-19T10:16:16;24.27;;;18.75;;
22622;SDS011;11478;51.094;7.030;2022-08-19T10:18:48;24.10;;;19.80;;
22622;SDS011;11478;51.094;7.030;2022-08-19T10:23:57;27.35;;;19.33;;
22622;SDS011;11478;51.094;7.030;2022-08-19T10:26:31;21.58;;;17.30;;
22622;SDS011;11478;51.094;7.030;2022-08-19T10:29:02;24.77;;;16.92;;
22622;SDS011;11478;51.094;7.030;2022-08-19T10:31:31;21.50;;;15.68;;
22622;SDS011;11478;51.094;7.030;2022-08-19T10:33:58;22.33;;;16.63;;
22622;SDS011;11478;51.094;7.030;2022-08-19T10:36:32;27.67;;;19.27;;
22622;SDS011;11478;51.094;7.030;2022-08-19T10:39:01;24.05;;;17.88;;
22622;SDS011;11478;51.094;7.030;2022-08-19T10:41:34;21.17;;;18.48;;
22622;SDS011;11478;51.094;7.030;2022-08-19T10:44:11;20.85;;;16.85;;
22622;SDS011;11478;51.094;7.030;2022-08-19T10:46:46;28.47;;;18.53;;
22622;SDS011;11478;51.094;7.030;2022-08-19T10:49:13;20.17;;;16.42;;
22622;SDS011;11478;51.094;7.030;2022-08-19T10:51:39;20.88;;;16.88;;
22622;SDS011;11478;51.094;7.030;2022-08-19T11:00:23;16.33;;;13.35;;
22622;SDS011;11478;51.094;7.030;2022-08-19T11:02:55;16.10;;;14.40;;
22622;SDS011;11478;51.094;7.030;2022-08-19T11:05:28;14.77;;;12.70;;
22622;SDS011;11478;51.094;7.030;2022-08-19T11:10:28;16.00;;;13.63;;
22622;SDS011;11478;51.094;7.030;2022-08-19T11:12:54;13.13;;;11.13;;
22622;SDS011;11478;51.094;7.030;2022-08-19T11:15:29;13.70;;;11.40;;
22622;SDS011;11478;51.094;7.030;2022-08-19T11:17:58;13.82;;;11.10;;
22622;SDS011;11478;51.094;7.030;2022-08-19T11:20:26;11.27;;;9.50;;
22622;SDS011;11478;51.094;7.030;2022-08-19T11:22:59;10.05;;;8.95;;
22622;SDS011;11478;51.094;7.030;2022-08-19T11:25:57;10.98;;;9.85;;
22622;SDS011;11478;51.094;7.030;2022-08-19T11:31:01;11.20;;;8.18;;
22622;SDS011;11478;51.094;7.030;2022-08-19T11:43:53;12.57;;;10.68;;
22622;SDS011;11478;51.094;7.030;2022-08-19T11:46:24;14.32;;;11.18;;
22622;SDS011;11478;51.094;7.030;2022-08-19T11:48:58;10.75;;;9.48;;
22622;SDS011;11478;51.094;7.030;2022-08-19T11:51:28;14.00;;;11.05;;
22622;SDS011;11478;51.094;7.030;2022-08-19T11:53:58;12.27;;;10.98;;
22622;SDS011;11478;51.094;7.030;2022-08-19T11:56:25;12.35;;;10.90;;
22622;SDS011;11478;51.094;7.030;2022-08-19T11:59:21;13.32;;;9.05;;
22622;SDS011;11478;51.094;7.030;2022-08-19T12:01:52;10.85;;;8.60;;
22622;SDS011;11478;51.094;7.030;2022-08-19T12:04:32;12.50;;;8.57;;
22622;SDS011;11478;51.094;7.030;2022-08-19T12:06:57;12.88;;;9.00;;
22622;SDS011;11478;51.094;7.030;2022-08-19T12:09:26;11.05;;;9.93;;
22622;SDS011;11478;51.094;7.030;2022-08-19T12:11:52;11.80;;;8.82;;
22622;SDS011;11478;51.094;7.030;2022-08-19T12:17:37;10.13;;;7.78;;
22622;SDS011;11478;51.094;7.030;2022-08-19T12:20:16;9.15;;;8.10;;
22622;SDS011;11478;51.094;7.030;2022-08-19T12:22:51;9.23;;;7.47;;
22622;SDS011;11478;51.094;7.030;2022-08-19T12:25:44;10.40;;;7.60;;
22622;SDS011;11478;51.094;7.030;2022-08-19T12:30:57;8.95;;;6.97;;
22622;SDS011;11478;51.094;7.030;2022-08-19T12:40:59;7.70;;;6.90;;
22622;SDS011;11478;51.094;7.030;2022-08-19T12:43:37;9.50;;;6.63;;
22622;SDS011;11478;51.094;7.030;2022-08-19T12:46:07;10.68;;;8.20;;
22622;SDS011;11478;51.094;7.030;2022-08-19T12:48:33;9.85;;;7.57;;
22622;SDS011;11478;51.094;7.030;2022-08-19T12:56:20;12.45;;;7.38;;
22622;SDS011;11478;51.094;7.030;2022-08-19T12:58:48;10.68;;;6.68;;
22622;SDS011;11478;51.094;7.030;2022-08-19T13:01:24;12.50;;;6.95;;
22622;SDS011;11478;51.094;7.030;2022-08-19T13:04:00;8.55;;;6.50;;
22622;SDS011;11478;51.094;7.030;2022-08-19T13:06:35;10.63;;;6.95;;
22622;SDS011;11478;51.094;7.030;2022-08-19T13:11:59;10.45;;;6.38;;
22622;SDS011;11478;51.094;7.030;2022-08-19T13:26:04;11.05;;;7.13;;
22622;SDS011;11478;51.094;7.030;2022-08-19T13:28:45;9.80;;;7.57;;
22622;SDS011;11478;51.094;7.030;2022-08-19T13:31:34;12.30;;;7.72;;
22622;SDS011;11478;51.094;7.030;2022-08-19T13:34:31;11.02;;;6.75;;
22622;SDS011;11478;51.094;7.030;2022-08-19T13:37:25;9.32;;;6.30;;
22622;SDS011;11478;51.094;7.030;2022-08-19T13:40:19;10.60;;;7.13;;
22622;SDS011;11478;51.094;7.030;2022-08-19T13:43:03;8.05;;;5.60;;
22622;SDS011;11478;51.094;7.030;2022-08-19T13:45:35;8.88;;;5.88;;
22622;SDS011;11478;51.094;7.030;2022-08-19T13:48:27;5.70;;;5.20;;
22622;SDS011;11478;51.094;7.030;2022-08-19T13:51:53;7.03;;;5.38;;
22622;SDS011;11478;51.094;7.030;2022-08-19T13:55:01;8.75;;;5.55;;
22622;SDS011;11478;51.094;7.030;2022-08-19T13:58:11;8.52;;;5.47;;
22622;SDS011;11478;51.094;7.030;2022-08-19T14:01:32;9.20;;;5.77;;
22622;SDS011;11478;51.094;7.030;2022-08-19T14:04:11;6.85;;;6.13;;
22622;SDS011;11478;51.094;7.030;2022-08-19T14:07:00;8.75;;;6.00;;
22622;SDS011;11478;51.094;7.030;2022-08-19T14:09:58;7.50;;;5.88;;
22622;SDS011;11478;51.094;7.030;2022-08-19T14:12:52;7.90;;;5.38;;
22622;SDS011;11478;51.094;7.030;2022-08-19T14:15:40;9.40;;;5.10;;
22622;SDS011;11478;51.094;7.030;2022-08-19T14:26:42;7.32;;;4.10;;
22622;SDS011;11478;51.094;7.030;2022-08-19T14:29:25;5.38;;;4.10;;
22622;SDS011;11478;51.094;7.030;2022-08-19T14:32:18;9.32;;;5.13;;
22622;SDS011;11478;51.094;7.030;2022-08-19T14:35:05;7.40;;;5.15;;
22622;SDS011;11478;51.094;7.030;2022-08-19T14:37:50;7.75;;;5.07;;
22622;SDS011;11478;51.094;7.030;2022-08-19T14:40:38;6.25;;;5.00;;
22622;SDS011;11478;51.094;7.030;2022-08-19T14:43:05;7.32;;;4.40;;
22622;SDS011;11478;51.094;7.030;2022-08-19T14:45:35;7.68;;;4.40;;
22622;SDS011;11478;51.094;7.030;2022-08-19T14:48:04;5.68;;;4.43;;
22622;SDS011;11478;51.094;7.030;2022-08-19T14:50:32;8.00;;;4.60;;
22622;SDS011;11478;51.094;7.030;2022-08-19T14:53:09;5.40;;;4.32;;
22622;SDS011;11478;51.094;7.030;2022-08-19T14:55:42;6.47;;;4.57;;
22622;SDS011;11478;51.094;7.030;2022-08-19T14:58:10;6.38;;;4.13;;
22622;SDS011;11478;51.094;7.030;2022-08-19T15:00:38;4.68;;;3.72;;
22622;SDS011;11478;51.094;7.030;2022-08-19T15:03:22;5.75;;;4.55;;
22622;SDS011;11478;51.094;7.030;2022-08-19T15:06:02;6.85;;;3.75;;
22622;SDS011;11478;51.094;7.030;2022-08-19T15:08:38;5.93;;;4.10;;
22622;SDS011;11478;51.094;7.030;2022-08-19T15:11:09;4.95;;;3.67;;
22622;SDS011;11478;51.094;7.030;2022-08-19T15:13:37;5.60;;;3.60;;
22622;SDS011;11478;51.094;7.030;2022-08-19T15:16:08;7.03;;;3.70;;
22622;SDS011;11478;51.094;7.030;2022-08-19T15:18:35;6.22;;;3.90;;
22622;SDS011;11478;51.094;7.030;2022-08-19T15:21:10;5.70;;;4.13;;
22622;SDS011;11478;51.094;7.030;2022-08-19T15:26:38;7.47;;;3.78;;
22622;SDS011;11478;51.094;7.030;2022-08-19T15:29:42;7.07;;;3.92;;
22622;SDS011;11478;51.094;7.030;2022-08-19T15:32:16;5.82;;;3.55;;
22622;SDS011;11478;51.094;7.030;2022-08-19T15:34:46;4.95;;;3.30;;
22622;SDS011;11478;51.094;7.030;2022-08-19T15:39:59;8.25;;;4.00;;
22622;SDS011;11478;51.094;7.030;2022-08-19T15:42:26;5.88;;;3.47;;
22622;SDS011;11478;51.094;7.030;2022-08-19T15:44:54;6.10;;;3.45;;
22622;SDS011;11478;51.094;7.030;2022-08-19T15:47:40;6.47;;;3.70;;
22622;SDS011;11478;51.094;7.030;2022-08-19T15:50:14;4.32;;;2.90;;
22622;SDS011;11478;51.094;7.030;2022-08-19T15:52:55;5.28;;;3.05;;
22622;SDS011;11478;51.094;7.030;2022-08-19T15:55:25;5.20;;;3.00;;
22622;SDS011;11478;51.094;7.030;2022-08-19T15:57:59;4.63;;;2.95;;
22622;SDS011;11478;51.094;7.030;2022-08-19T16:06:19;7.22;;;3.00;;
22622;SDS011;11478;51.094;7.030;2022-08-19T16:08:51;4.15;;;2.85;;
22622;SDS011;11478;51.094;7.030;2022-08-19T16:11:21;4.63;;;2.60;;
22622;SDS011;11478;51.094;7.030;2022-08-19T16:13:50;3.40;;;2.70;;
22622;SDS011;11478;51.094;7.030;2022-08-19T16:16:21;7.22;;;2.78;;
22622;SDS011;11478;51.094;7.030;2022-08-19T16:18:55;6.05;;;2.78;;
22622;SDS011;11478;51.094;7.030;2022-08-19T16:21:24;4.05;;;2.55;;
22622;SDS011;11478;51.094;7.030;2022-08-19T16:23:56;5.70;;;2.88;;
22622;SDS011;11478;51.094;7.030;2022-08-19T16:26:22;4.72;;;2.60;;
22622;SDS011;11478;51.094;7.030;2022-08-19T16:28:50;3.33;;;2.55;;
22622;SDS011;11478;51.094;7.030;2022-08-19T16:31:17;3.95;;;2.75;;
22622;SDS011;11478;51.094;7.030;2022-08-19T16:33:43;3.95;;;2.78;;
22622;SDS011;11478;51.094;7.030;2022-08-19T16:36:09;5.97;;;2.90;;
22622;SDS011;11478;51.094;7.030;2022-08-19T16:38:35;4.13;;;3.10;;
22622;SDS011;11478;51.094;7.030;2022-08-19T16:41:01;5.32;;;2.88;;
22622;SDS011;11478;51.094;7.030;2022-08-19T16:43:28;4.70;;;2.78;;
22622;SDS011;11478;51.094;7.030;2022-08-19T16:45:57;3.55;;;3.00;;
22622;SDS011;11478;51.094;7.030;2022-08-19T16:48:27;7.35;;;3.08;;
22622;SDS011;11478;51.094;7.030;2022-08-19T16:50:55;7.90;;;3.55;;
22622;SDS011;11478;51.094;7.030;2022-08-19T16:53:22;8.52;;;3.40;;
22622;SDS011;11478;51.094;7.030;2022-08-19T16:56:02;5.25;;;3.33;;
22622;SDS011;11478;51.094;7.030;2022-08-19T16:58:33;10.95;;;3.78;;
22622;SDS011;11478;51.094;7.030;2022-08-19T17:01:02;5.35;;;3.40;;
22622;SDS011;11478;51.094;7.030;2022-08-19T17:03:31;4.15;;;3.53;;
22622;SDS011;11478;51.094;7.030;2022-08-19T17:05:59;5.18;;;3.47;;
22622;SDS011;11478;51.094;7.030;2022-08-19T17:08:30;6.05;;;3.50;;
22622;SDS011;11478;51.094;7.030;2022-08-19T17:10:58;5.00;;;3.63;;